Time;durP1;ratioP1;P1;durP2;ratioP2;P2;SDS_P1;SDS_P2;PMS_P1;PMS_P2;Temp;Humidity;BMP_temperature;BMP_pressure;BME280_temperature;BME280_humidity;BME280_pressure;Samples;Min_cycle;Max_cycle;Signal;HPM_P1;HPM_P2
2022/07/02 00:02:13;;;;;;;6.45;5.70;;;;;;;21.26;71.45;101162.94;4996569;28;102296;-46
2022/07/02 00:04:46;;;;;;;6.10;5.30;;;;;;;21.26;71.37;101168.47;4995181;28;103668;-48
2022/07/02 00:07:14;;;;;;;7.13;6.43;;;;;;;21.27;71.26;101175.63;4994092;28;102237;-46
2022/07/02 00:09:44;;;;;;;6.40;5.50;;;;;;;21.27;71.21;101172.88;4989516;28;104086;-45
2022/07/02 00:12:11;;;;;;;6.30;5.70;;;;;;;21.27;71.30;101167.34;4994885;28;102242;-46
2022/07/02 00:14:38;;;;;;;5.90;5.20;;;;;;;21.26;71.48;101174.03;4993942;28;102315;-47
2022/07/02 00:17:05;;;;;;;6.75;5.65;;;;;;;21.28;71.37;101180.06;4995108;28;102683;-46
2022/07/02 00:19:34;;;;;;;7.00;6.30;;;;;;;21.27;71.44;101178.41;4989077;28;104087;-48
2022/07/02 00:22:02;;;;;;;8.18;6.15;;;;;;;21.27;71.30;101172.88;4981989;28;102308;-46
2022/07/02 00:24:28;;;;;;;7.30;6.70;;;;;;;21.27;71.45;101170.09;4994532;28;102467;-47
2022/07/02 00:26:59;;;;;;;6.60;5.90;;;;;;;21.27;71.41;101181.16;4992113;28;102464;-45
2022/07/02 00:29:33;;;;;;;7.30;6.50;;;;;;;21.27;71.18;101181.16;4990201;28;103887;-48
2022/07/02 00:31:59;;;;;;;8.68;6.07;;;;;;;21.27;71.39;101170.09;4995167;28;102140;-46
2022/07/02 00:34:28;;;;;;;7.57;5.88;;;;;;;21.28;71.40;101173.69;4992171;28;102213;-48
2022/07/02 00:36:56;;;;;;;6.60;6.00;;;;;;;21.27;71.48;101158.22;4996446;28;102326;-46
2022/07/02 00:39:22;;;;;;;6.80;6.20;;;;;;;21.26;71.37;101165.72;4992954;28;104055;-48
2022/07/02 00:41:50;;;;;;;6.45;5.82;;;;;;;21.25;71.30;101172.41;4995212;28;102573;-47
2022/07/02 00:44:22;;;;;;;7.32;6.07;;;;;;;21.25;71.51;101166.88;4992864;28;102220;-46
2022/07/02 00:46:49;;;;;;;6.90;6.30;;;;;;;21.25;71.22;101172.41;4995142;28;102285;-49
2022/07/02 00:49:17;;;;;;;7.70;6.90;;;;;;;21.25;71.31;101180.72;4985893;28;104307;-49
2022/07/02 00:51:44;;;;;;;7.20;6.03;;;;;;;21.25;71.37;101183.47;4992330;28;102724;-46
2022/07/02 00:54:11;;;;;;;7.32;6.18;;;;;;;21.25;71.35;101177.94;4992410;28;102195;-46
2022/07/02 00:56:37;;;;;;;7.07;6.20;;;;;;;21.25;71.40;101177.94;4995571;28;102121;-46
2022/07/02 00:59:04;;;;;;;6.85;6.25;;;;;;;21.25;71.58;101177.94;4993771;28;104196;-46
2022/07/02 01:01:33;;;;;;;6.80;6.15;;;;;;;21.25;71.57;101177.94;4994172;28;102368;-48
2022/07/02 01:04:01;;;;;;;6.20;5.43;;;;;;;21.25;71.57;101169.63;4992545;28;103906;-47
2022/07/02 01:06:31;;;;;;;6.30;5.68;;;;;;;21.25;71.47;101168.81;4995621;28;102586;-47
2022/07/02 01:11:46;;;;;;;8.43;6.22;;;;;;;21.26;71.54;101176.78;4991842;28;102025;-48
2022/07/02 01:14:18;;;;;;;6.45;5.93;;;;;;;21.25;71.49;101177.94;4992728;28;102612;-46
2022/07/02 01:16:46;;;;;;;6.32;5.72;;;;;;;21.25;71.55;101175.16;4995276;28;102428;-47
2022/07/02 01:19:17;;;;;;;7.63;6.18;;;;;;;21.25;71.51;101179.91;4992691;28;103933;-48
2022/07/02 01:22:19;;;;;;;5.95;5.45;;;;;;;21.25;71.54;101179.91;4994319;28;102157;-49
2022/07/02 01:24:47;;;;;;;6.72;6.03;;;;;;;21.24;71.58;101173.56;4984472;28;103726;-47
2022/07/02 01:27:14;;;;;;;;;;;;;;;21.24;71.65;101169.94;4995191;28;104274;-46
2022/07/02 01:29:42;;;;;;;6.85;6.20;;;;;;;21.25;71.61;101177.94;4991186;28;103807;-46
2022/07/02 01:32:09;;;;;;;7.15;6.03;;;;;;;21.24;71.66;101181.88;4994656;28;102052;-49
2022/07/02 01:34:39;;;;;;;7.17;6.23;;;;;;;21.24;71.49;101184.63;4991950;28;102333;-46
2022/07/02 01:37:08;;;;;;;6.75;5.30;;;;;;;21.24;71.64;101187.41;4995828;28;102656;-46
2022/07/02 01:39:37;;;;;;;6.55;5.82;;;;;;;21.23;71.67;101191.28;4995375;28;103967;-45
2022/07/02 01:42:05;;;;;;;6.63;6.03;;;;;;;21.24;71.34;101197.63;4997515;28;102433;-48
2022/07/02 01:44:32;;;;;;;6.57;5.97;;;;;;;21.24;71.50;101187.41;4992207;28;102314;-47
2022/07/02 01:47:01;;;;;;;7.68;5.75;;;;;;;21.24;71.67;101192.94;4998534;28;102193;-47
2022/07/02 01:49:27;;;;;;;6.00;5.50;;;;;;;21.24;71.53;101192.09;4995550;28;103888;-47
2022/07/02 01:51:54;;;;;;;9.02;6.15;;;;;;;21.23;71.62;101194.06;4997418;28;103996;-48
2022/07/02 01:54:21;;;;;;;6.53;5.75;;;;;;;21.22;71.65;101192.44;4995014;28;102074;-46
2022/07/02 01:56:49;;;;;;;6.53;5.80;;;;;;;21.23;71.74;101191.28;4979985;28;102348;-45
2022/07/02 01:59:15;;;;;;;8.20;5.67;;;;;;;21.23;71.64;101190.47;4995346;28;103856;-45
2022/07/02 02:01:43;;;;;;;5.88;5.35;;;;;;;21.23;71.65;101196.03;4997491;28;102313;-46
2022/07/02 02:04:10;;;;;;;7.28;5.75;;;;;;;21.23;71.65;101196.81;4995690;28;102067;-46
2022/07/02 02:06:40;;;;;;;6.85;5.28;;;;;;;21.23;71.52;101202.34;4997303;28;103169;-47
2022/07/02 02:09:06;;;;;;;6.82;5.30;;;;;;;21.23;71.70;101202.34;4994370;28;103899;-47
2022/07/02 02:11:33;;;;;;;6.40;5.80;;;;;;;21.22;71.67;101199.94;4997247;28;102312;-49
2022/07/02 02:14:01;;;;;;;6.90;5.15;;;;;;;21.21;71.79;101201.91;4995612;28;102397;-46
2022/07/02 02:16:30;;;;;;;6.22;5.55;;;;;;;21.21;71.57;101201.91;4996381;28;102446;-49
2022/07/02 02:18:58;;;;;;;6.95;5.60;;;;;;;21.22;71.64;101197.97;4994501;28;104116;-46
2022/07/02 02:21:26;;;;;;;11.05;5.63;;;;;;;21.22;71.84;101203.50;4996691;28;102071;-46
2022/07/02 02:23:54;;;;;;;6.20;5.38;;;;;;;21.21;71.71;101212.16;4995021;28;102501;-45
2022/07/02 02:26:21;;;;;;;6.13;5.53;;;;;;;21.21;71.73;101212.97;4995776;28;102614;-46
2022/07/02 02:28:48;;;;;;;6.07;5.55;;;;;;;21.20;71.71;101214.09;4994287;28;103739;-46
2022/07/02 02:31:16;;;;;;;5.70;5.25;;;;;;;21.22;71.76;101222.09;4996669;28;103975;-47
2022/07/02 02:33:42;;;;;;;5.77;5.27;;;;;;;21.22;71.67;101222.09;4994916;28;102368;-47
2022/07/02 02:36:08;;;;;;;6.03;5.43;;;;;;;21.22;71.61;101214.59;4997063;28;102360;-48
2022/07/02 02:38:38;;;;;;;5.85;5.28;;;;;;;21.21;71.67;101215.75;4994718;28;103852;-46
2022/07/02 02:41:07;;;;;;;5.80;5.10;;;;;;;21.21;71.65;101221.28;4996152;28;102472;-46
2022/07/02 02:43:34;;;;;;;6.32;5.82;;;;;;;21.22;71.76;101224.84;4994963;28;102008;-47
2022/07/02 02:46:02;;;;;;;5.97;5.38;;;;;;;21.21;71.77;101221.28;4993488;28;102560;-49
2022/07/02 02:48:30;;;;;;;5.38;4.97;;;;;;;21.21;71.85;101226.81;4995248;28;104061;-49
2022/07/02 02:50:58;;;;;;;5.18;4.68;;;;;;;21.21;71.77;101226.81;4995362;28;102751;-47
2022/07/02 02:53:24;;;;;;;5.80;5.30;;;;;;;21.21;71.76;101232.34;4994223;28;102579;-47
2022/07/02 02:55:51;;;;;;;5.60;5.15;;;;;;;21.21;71.73;101224.03;4995871;28;102178;-45
2022/07/02 02:58:18;;;;;;;5.47;5.05;;;;;;;21.22;71.70;101233.16;4995460;28;103737;-46
2022/07/02 03:00:45;;;;;;;6.28;5.68;;;;;;;21.21;71.89;101232.34;4994586;28;102028;-47
2022/07/02 03:03:11;;;;;;;5.22;4.82;;;;;;;21.21;71.62;101232.34;4994826;28;102128;-47
2022/07/02 03:05:39;;;;;;;5.95;5.45;;;;;;;21.22;71.64;101233.97;4997723;28;102289;-47
2022/07/02 03:08:06;;;;;;;5.40;4.90;;;;;;;21.22;71.53;101239.50;4976248;28;103880;-45
2022/07/02 03:10:33;;;;;;;5.88;5.30;;;;;;;21.22;71.53;101233.97;4988460;28;102510;-46
2022/07/02 03:12:59;;;;;;;5.45;4.95;;;;;;;21.23;71.55;101241.13;4976655;28;102090;-47
2022/07/02 03:15:26;;;;;;;5.30;4.80;;;;;;;21.24;71.44;101245.53;4994410;28;102209;-45
2022/07/02 03:17:53;;;;;;;6.25;5.50;;;;;;;21.25;71.22;101244.38;4995436;28;104787;-45
2022/07/02 03:20:20;;;;;;;6.07;5.47;;;;;;;21.25;71.17;101240.81;4994679;28;102742;-47
2022/07/02 03:22:48;;;;;;;5.43;5.03;;;;;;;21.25;71.12;101238.84;4994152;28;102387;-46
2022/07/02 03:25:14;;;;;;;5.87;5.10;;;;;;;21.27;71.24;101244.84;4994818;28;102617;-46
2022/07/02 03:27:41;;;;;;;6.40;5.05;;;;;;;21.27;71.15;101247.59;4994419;28;103806;-46
2022/07/02 03:30:09;;;;;;;4.95;4.55;;;;;;;21.28;71.15;101243.72;4987047;28;104461;-50
2022/07/02 03:32:36;;;;;;;5.50;5.00;;;;;;;21.27;71.39;101249.56;4994934;28;102242;-50
2022/07/02 03:35:05;;;;;;;5.35;4.85;;;;;;;21.27;71.42;101255.09;4995904;28;102736;-49
2022/07/02 03:37:33;;;;;;;5.40;5.00;;;;;;;21.26;71.37;101257.06;4994128;28;104102;-49
2022/07/02 03:40:01;;;;;;;5.50;5.00;;;;;;;21.27;71.29;101260.63;4994389;28;102362;-49
2022/07/02 03:42:28;;;;;;;4.90;4.50;;;;;;;21.27;71.38;101255.91;4993856;28;102240;-49
2022/07/02 03:44:55;;;;;;;6.28;4.70;;;;;;;21.27;71.35;101258.69;4996122;28;104939;-48
2022/07/02 03:47:21;;;;;;;5.20;4.70;;;;;;;21.27;71.21;101253.16;4993870;28;104154;-47
2022/07/02 03:49:48;;;;;;;5.15;4.75;;;;;;;21.28;71.45;101252.03;4992972;28;102417;-47
2022/07/02 03:52:15;;;;;;;5.30;4.80;;;;;;;21.30;71.35;101246.94;4994437;28;102677;-49
2022/07/02 03:54:41;;;;;;;5.38;4.88;;;;;;;21.30;71.46;101246.13;4995933;28;102408;-48
2022/07/02 03:57:09;;;;;;;4.43;4.10;;;;;;;21.30;71.46;101244.19;4991792;28;103820;-46
2022/07/02 03:59:36;;;;;;;4.82;4.40;;;;;;;21.31;71.48;101234.75;4990835;28;102320;-49
2022/07/02 04:02:03;;;;;;;5.10;4.70;;;;;;;21.31;71.37;101237.53;4995244;28;102414;-47
2022/07/02 04:04:30;;;;;;;4.97;4.43;;;;;;;21.33;71.46;101238.03;4994195;28;102410;-48
2022/07/02 04:06:57;;;;;;;4.97;4.53;;;;;;;21.34;71.42;101238.81;4994132;28;103999;-47
2022/07/02 04:09:23;;;;;;;4.75;4.40;;;;;;;21.35;71.37;101243.25;4994317;28;102320;-46
2022/07/02 04:11:50;;;;;;;5.00;4.60;;;;;;;21.37;70.97;101257.53;4993819;28;103833;-45
2022/07/02 04:14:18;;;;;;;4.60;4.30;;;;;;;21.38;71.16;101263.91;4994274;28;102236;-48
2022/07/02 04:16:44;;;;;;;4.88;4.47;;;;;;;21.36;71.37;101255.94;4994023;28;104035;-49
2022/07/02 04:19:11;;;;;;;4.53;4.18;;;;;;;21.39;71.35;101257.25;4993595;28;102246;-46
2022/07/02 04:21:38;;;;;;;4.53;4.15;;;;;;;21.40;71.31;101262.44;4994522;28;102195;-49
2022/07/02 04:24:05;;;;;;;5.60;4.68;;;;;;;21.41;71.35;101263.22;4994484;28;102500;-46
2022/07/02 04:26:32;;;;;;;5.00;4.60;;;;;;;21.42;71.39;101270.38;4991957;28;103848;-47
2022/07/02 04:28:59;;;;;;;4.85;4.45;;;;;;;21.42;71.48;101276.75;4991666;28;102404;-49
2022/07/02 04:31:27;;;;;;;5.18;4.70;;;;;;;21.43;71.27;101283.13;4994606;28;102375;-46
2022/07/02 04:33:54;;;;;;;4.60;4.30;;;;;;;21.44;71.36;101287.50;4994384;28;102536;-47
2022/07/02 04:36:20;;;;;;;4.82;4.43;;;;;;;21.45;71.28;101291.88;4992495;28;104090;-46
2022/07/02 04:38:47;;;;;;;4.60;4.20;;;;;;;21.45;71.23;101297.41;4994185;28;102108;-46
2022/07/02 04:41:13;;;;;;;5.07;4.68;;;;;;;21.47;71.50;101289.59;4993791;28;102154;-48
2022/07/02 04:43:40;;;;;;;5.20;4.70;;;;;;;21.45;71.41;101291.88;4994252;28;102661;-45
2022/07/02 04:46:06;;;;;;;5.03;4.63;;;;;;;21.45;71.43;101295.47;4991600;28;104104;-45
2022/07/02 04:48:35;;;;;;;5.15;4.70;;;;;;;21.44;71.36;101291.06;4992274;28;102151;-47
2022/07/02 04:51:01;;;;;;;4.97;4.57;;;;;;;21.46;71.56;101291.56;4993463;28;102315;-46
2022/07/02 04:53:28;;;;;;;5.50;4.80;;;;;;;21.47;71.17;101295.16;4994008;28;102175;-47
2022/07/02 04:55:55;;;;;;;4.72;4.32;;;;;;;21.50;71.18;101300.03;4990541;28;103989;-46
2022/07/02 04:58:21;;;;;;;5.15;4.65;;;;;;;21.50;71.30;101300.03;4992489;28;103893;-46
2022/07/02 05:00:48;;;;;;;5.15;4.75;;;;;;;21.50;71.45;101300.84;4990824;28;102736;-47
2022/07/02 05:03:14;;;;;;;5.20;4.70;;;;;;;21.52;71.34;101303.25;4992888;28;102623;-46
2022/07/02 05:05:42;;;;;;;5.15;4.70;;;;;;;21.52;71.41;101306.84;4993170;28;104047;-46
2022/07/02 05:08:09;;;;;;;5.20;4.70;;;;;;;21.53;71.22;101315.97;4994315;28;102251;-48
2022/07/02 05:10:39;;;;;;;5.10;4.70;;;;;;;21.55;71.20;101316.44;4992886;28;102813;-49
2022/07/02 05:13:06;;;;;;;4.85;4.25;;;;;;;21.57;71.09;101314.19;4992868;28;102486;-49
2022/07/02 05:15:33;;;;;;;5.15;4.65;;;;;;;21.59;70.98;101321.00;4989212;28;104360;-45
2022/07/02 05:18:00;;;;;;;4.45;4.10;;;;;;;21.60;70.93;101321.78;4994595;28;102825;-47
2022/07/02 05:20:28;;;;;;;5.20;4.75;;;;;;;21.61;70.80;101323.44;4992850;28;102181;-47
2022/07/02 05:22:56;;;;;;;5.82;4.72;;;;;;;21.63;70.83;101332.22;4993344;28;102181;-47
2022/07/02 05:25:23;;;;;;;6.13;4.43;;;;;;;21.65;70.75;101329.94;4992320;28;103923;-46
2022/07/02 05:27:50;;;;;;;4.40;3.92;;;;;;;21.67;70.81;101329.59;4993848;28;102160;-45
2022/07/02 05:30:16;;;;;;;4.60;4.22;;;;;;;21.65;70.62;101327.19;4990941;28;102331;-47
2022/07/02 05:32:43;;;;;;;5.03;4.60;;;;;;;21.64;71.01;101317.25;4993673;28;102821;-49
2022/07/02 05:35:09;;;;;;;5.03;4.63;;;;;;;21.66;70.82;101325.22;4976391;28;105605;-47
2022/07/02 05:37:37;;;;;;;4.55;4.20;;;;;;;21.63;70.77;101320.34;4991514;28;102319;-46
2022/07/02 05:40:06;;;;;;;3.92;3.63;;;;;;;21.61;70.82;101328.97;4991938;28;102466;-46
2022/07/02 05:42:32;;;;;;;4.72;4.32;;;;;;;21.62;70.99;101322.28;4993658;28;102142;-49
2022/07/02 05:44:59;;;;;;;5.35;4.43;;;;;;;21.63;71.00;101326.69;4992562;28;104707;-48
2022/07/02 05:47:25;;;;;;;4.78;4.10;;;;;;;21.64;70.78;101333.88;4992725;28;102236;-48
2022/07/02 05:49:52;;;;;;;5.38;4.88;;;;;;;21.65;70.79;101327.19;4990842;28;102413;-47
2022/07/02 05:52:21;;;;;;;6.30;4.20;;;;;;;21.67;70.82;101338.72;4993255;28;102285;-45
2022/07/02 05:54:48;;;;;;;5.35;4.63;;;;;;;21.68;70.68;101348.69;4991917;28;107939;-47
2022/07/02 05:57:16;;;;;;;4.75;4.35;;;;;;;21.73;70.45;101340.16;4993903;28;102255;-46
2022/07/02 05:59:42;;;;;;;4.83;4.43;;;;;;;21.74;70.44;101349.28;4990690;28;102205;-46
2022/07/02 06:02:09;;;;;;;4.57;3.97;;;;;;;21.74;70.51;101355.63;4991867;28;102725;-47
2022/07/02 06:04:35;;;;;;;3.67;3.38;;;;;;;21.77;70.66;101349.44;4991112;28;103909;-49
2022/07/02 06:09:48;;;;;;;5.90;4.22;;;;;;;21.79;70.47;101354.66;4990373;28;102748;-45
2022/07/02 06:12:17;;;;;;;5.20;4.35;;;;;;;21.75;70.52;101357.28;4993137;28;102549;-45
2022/07/02 06:14:43;;;;;;;4.73;4.33;;;;;;;21.77;70.45;101354.97;4991641;28;104045;-47
2022/07/02 06:17:11;;;;;;;4.80;4.15;;;;;;;21.80;70.48;101357.09;4993404;28;102507;-47
2022/07/02 06:19:42;;;;;;;4.53;4.05;;;;;;;21.83;70.32;101361.97;4989196;28;102222;-45
2022/07/02 06:22:09;;;;;;;4.68;4.25;;;;;;;21.84;70.50;101366.38;4988746;28;102502;-46
2022/07/02 06:24:36;;;;;;;5.03;4.22;;;;;;;21.89;70.34;101361.78;4991461;28;103891;-46
2022/07/02 06:27:03;;;;;;;4.72;4.22;;;;;;;21.91;70.36;101365.03;4989546;28;103506;-48
2022/07/02 06:29:31;;;;;;;5.22;4.00;;;;;;;21.93;70.12;101363.56;4993691;28;102087;-48
2022/07/02 06:31:58;;;;;;;8.53;5.07;;;;;;;21.94;70.06;101365.19;4998536;28;102799;-48
2022/07/02 06:34:24;;;;;;;4.60;4.20;;;;;;;21.96;69.95;101362.06;4996754;28;103815;-47
2022/07/02 06:36:51;;;;;;;5.00;4.43;;;;;;;21.99;69.68;101361.41;4997701;28;101921;-47
2022/07/02 06:39:17;;;;;;;6.15;4.25;;;;;;;21.99;70.23;101362.22;4996812;28;102401;-49
2022/07/02 06:44:30;;;;;;;4.68;4.20;;;;;;;22.00;69.73;101369.41;4996969;28;104100;-46
2022/07/02 06:46:58;;;;;;;5.75;4.15;;;;;;;22.02;69.83;101371.84;4997468;28;102066;-46
2022/07/02 06:49:24;;;;;;;4.00;3.65;;;;;;;22.04;69.92;101364.00;4996173;28;102472;-49
2022/07/02 06:51:51;;;;;;;4.80;4.40;;;;;;;22.03;70.02;101360.44;4997199;28;102166;-46
2022/07/02 06:54:17;;;;;;;4.97;4.47;;;;;;;22.05;69.31;101360.91;4995506;28;104304;-47
2022/07/02 06:56:44;;;;;;;6.20;4.00;;;;;;;22.08;69.50;101367.75;4985224;28;102253;-46
2022/07/02 06:59:11;;;;;;;4.75;4.35;;;;;;;22.07;69.57;101368.91;4996948;28;102268;-46
2022/07/02 07:01:39;;;;;;;5.13;3.70;;;;;;;22.10;69.44;101372.94;4980297;28;102556;-49
2022/07/02 07:04:05;;;;;;;9.47;4.10;;;;;;;22.14;68.55;101377.50;4976860;28;103937;-49
2022/07/02 07:06:35;;;;;;;4.45;4.00;;;;;;;22.13;68.91;101373.09;4980105;28;101959;-47
2022/07/02 07:09:02;;;;;;;4.90;4.28;;;;;;;22.13;69.08;101381.41;4992979;28;102167;-46
2022/07/02 07:11:30;;;;;;;4.85;3.85;;;;;;;22.12;69.12;101378.97;4992600;28;102310;-47
2022/07/02 07:13:57;;;;;;;6.07;4.45;;;;;;;22.11;69.68;101383.72;4996222;28;103828;-46
2022/07/02 07:16:24;;;;;;;5.65;4.38;;;;;;;22.09;69.61;101380.44;4996973;28;102191;-45
2022/07/02 07:18:58;;;;;;;4.25;3.80;;;;;;;22.08;69.74;101381.59;4993269;28;102425;-45
2022/07/02 07:21:24;;;;;;;4.20;3.85;;;;;;;22.07;69.74;101391.06;4996279;28;102281;-46
2022/07/02 07:23:51;;;;;;;4.45;3.72;;;;;;;22.03;69.66;101392.84;4990157;28;103862;-47
2022/07/02 07:26:18;;;;;;;3.65;3.35;;;;;;;22.02;69.53;101399.56;4992901;28;102028;-47
2022/07/02 07:28:44;;;;;;;5.47;3.85;;;;;;;22.02;69.84;101405.09;4991079;28;103078;-47
2022/07/02 07:31:12;;;;;;;4.20;3.63;;;;;;;22.01;69.34;101406.25;4982184;28;102272;-47
2022/07/02 07:33:39;;;;;;;4.15;3.70;;;;;;;22.04;69.71;101408.38;4994802;28;103911;-47
2022/07/02 07:36:07;;;;;;;5.85;3.90;;;;;;;22.06;68.99;101408.81;4995443;28;102352;-46
2022/07/02 07:38:34;;;;;;;6.40;3.92;;;;;;;22.09;69.14;101416.47;4994220;28;103787;-46
2022/07/02 07:41:00;;;;;;;6.18;4.13;;;;;;;22.14;68.48;101410.78;4994036;28;102118;-47
2022/07/02 07:43:27;;;;;;;4.35;3.95;;;;;;;22.17;67.66;101409.31;4994065;28;104002;-46
2022/07/02 07:45:54;;;;;;;5.28;3.97;;;;;;;22.18;68.57;101408.97;4995441;28;102033;-49
2022/07/02 07:48:20;;;;;;;4.70;3.97;;;;;;;22.17;68.65;101412.88;4992486;28;102027;-47
2022/07/02 07:50:47;;;;;;;5.25;3.83;;;;;;;22.14;68.73;101424.63;4996006;28;102316;-48
2022/07/02 07:53:15;;;;;;;5.70;4.22;;;;;;;22.17;67.97;101418.44;4993568;28;107885;-47
2022/07/02 07:55:43;;;;;;;4.18;3.65;;;;;;;22.16;68.24;101433.44;4994670;28;102099;-49
2022/07/02 07:58:10;;;;;;;4.95;3.78;;;;;;;22.20;67.22;101434.41;4994905;28;102314;-46
2022/07/02 08:00:36;;;;;;;3.90;3.50;;;;;;;22.21;68.57;101424.94;4994911;28;102209;-47
2022/07/02 08:03:03;;;;;;;6.20;3.80;;;;;;;22.19;67.33;101432.78;4994189;28;104008;-47
2022/07/02 08:05:30;;;;;;;4.03;3.63;;;;;;;22.21;68.17;101433.25;4993234;28;102320;-46
2022/07/02 08:07:58;;;;;;;5.07;4.15;;;;;;;22.23;68.67;101427.38;4994824;28;102391;-46
2022/07/02 08:10:26;;;;;;;4.45;3.80;;;;;;;22.21;67.90;101435.22;4995540;28;102370;-47
2022/07/02 08:12:53;;;;;;;5.68;4.35;;;;;;;22.21;68.04;101441.56;4994245;28;104211;-46
2022/07/02 08:15:21;;;;;;;5.03;4.50;;;;;;;22.19;68.90;101427.22;4994756;28;102173;-47
2022/07/02 08:17:48;;;;;;;5.95;4.50;;;;;;;22.18;68.99;101447.78;4994333;28;102464;-46
2022/07/02 08:20:15;;;;;;;5.60;4.80;;;;;;;22.17;69.19;101448.91;4995674;28;102234;-47
2022/07/02 08:22:43;;;;;;;7.93;4.80;;;;;;;22.18;68.63;101435.88;4994078;28;103847;-46
2022/07/02 08:25:10;;;;;;;7.10;4.50;;;;;;;22.18;69.06;101442.25;4989249;28;102293;-46
2022/07/02 08:27:38;;;;;;;8.20;4.38;;;;;;;22.16;69.08;101438.97;4979056;28;102140;-47
2022/07/02 08:30:05;;;;;;;6.47;4.50;;;;;;;22.17;69.13;101446.16;4994509;28;102279;-46
2022/07/02 08:32:32;;;;;;;6.63;5.10;;;;;;;22.17;69.24;101450.88;4993948;28;104084;-46
2022/07/02 08:34:59;;;;;;;6.00;4.53;;;;;;;22.18;69.28;101447.78;4994273;28;102143;-47
2022/07/02 08:37:26;;;;;;;6.47;5.10;;;;;;;22.15;69.16;101445.69;4993857;28;102232;-46
2022/07/02 08:39:53;;;;;;;6.57;4.82;;;;;;;22.15;69.07;101456.78;4993495;28;102249;-48
2022/07/02 08:42:24;;;;;;;5.32;4.78;;;;;;;22.18;68.75;101449.72;4991978;28;103927;-46
2022/07/02 08:44:54;;;;;;;4.93;4.43;;;;;;;22.14;69.04;101443.19;4989712;28;102411;-47
2022/07/02 08:47:21;;;;;;;6.57;4.75;;;;;;;22.15;68.39;101453.19;4992554;28;102541;-47
2022/07/02 08:49:49;;;;;;;5.30;4.63;;;;;;;22.18;68.92;101453.34;4992266;28;102283;-47
2022/07/02 08:52:18;;;;;;;4.97;4.37;;;;;;;22.17;68.01;101457.22;4987833;28;103902;-49
2022/07/02 08:54:46;;;;;;;4.60;4.03;;;;;;;22.20;68.31;101444.69;4990918;28;102291;-47
2022/07/02 08:57:13;;;;;;;4.50;4.10;;;;;;;22.20;68.46;101445.50;4989847;28;102278;-46
2022/07/02 08:59:41;;;;;;;6.67;4.30;;;;;;;22.17;68.50;101450.88;4991932;28;102702;-46
2022/07/02 09:02:14;;;;;;;7.63;4.40;;;;;;;22.14;69.23;101459.81;4989367;28;104048;-48
2022/07/02 09:04:43;;;;;;;6.75;4.35;;;;;;;22.14;68.82;101451.50;4993014;28;102032;-48
2022/07/02 09:07:12;;;;;;;4.35;3.95;;;;;;;22.15;68.96;101451.22;4989728;28;102465;-46
2022/07/02 09:09:48;;;;;;;4.68;3.70;;;;;;;22.15;68.84;101453.19;4991963;28;102831;-47
2022/07/02 09:12:15;;;;;;;4.50;4.10;;;;;;;22.13;68.67;101461.78;4990042;28;103977;-46
2022/07/02 09:14:43;;;;;;;4.72;3.63;;;;;;;22.11;68.67;101458.56;4992239;28;102395;-49
2022/07/02 09:17:13;;;;;;;6.05;4.22;;;;;;;22.13;68.60;101460.97;4973703;28;102208;-48
2022/07/02 09:19:40;;;;;;;6.07;4.25;;;;;;;22.17;68.92;101461.97;4991297;28;102143;-47
2022/07/02 09:22:08;;;;;;;6.20;3.92;;;;;;;22.14;68.66;101457.91;4989951;28;103841;-47
2022/07/02 09:24:39;;;;;;;4.95;3.80;;;;;;;22.14;68.59;101451.50;4991675;28;104071;-46
2022/07/02 09:27:07;;;;;;;5.05;4.18;;;;;;;22.16;68.56;101450.06;4983197;28;102133;-48
2022/07/02 09:29:42;;;;;;;5.43;4.53;;;;;;;22.14;68.68;101457.91;4996492;28;102418;-50
2022/07/02 09:32:09;;;;;;;4.28;3.88;;;;;;;22.13;68.66;101450.69;4994109;28;103896;-47
2022/07/02 09:34:42;;;;;;;3.65;3.35;;;;;;;22.14;68.53;101452.34;4993575;28;104497;-49
2022/07/02 09:37:13;;;;;;;4.53;4.13;;;;;;;22.10;68.30;101450.56;4988520;28;102654;-49
2022/07/02 09:39:41;;;;;;;4.32;3.35;;;;;;;22.12;68.38;101457.41;4991198;28;102817;-49
2022/07/02 09:42:07;;;;;;;4.05;3.40;;;;;;;22.13;68.71;101450.69;4991915;28;103943;-48
2022/07/02 09:44:34;;;;;;;4.03;3.63;;;;;;;22.12;68.57;101442.72;4995031;28;102264;-47
2022/07/02 09:47:01;;;;;;;4.03;3.67;;;;;;;22.11;68.36;101453.00;4989103;28;102218;-48
2022/07/02 09:49:27;;;;;;;5.25;4.78;;;;;;;22.10;68.42;101442.22;4991746;28;102189;-45
2022/07/02 09:51:55;;;;;;;4.55;4.15;;;;;;;22.07;68.36;101443.72;4987962;28;103976;-49
2022/07/02 09:54:24;;;;;;;4.38;3.97;;;;;;;22.10;68.45;101453.31;4993169;28;103852;-46
2022/07/02 09:56:52;;;;;;;5.00;3.65;;;;;;;22.12;68.47;101442.72;4990863;28;102196;-46
2022/07/02 09:59:19;;;;;;;4.35;3.95;;;;;;;22.08;68.53;101448.94;4994335;28;102577;-47
2022/07/02 10:01:45;;;;;;;4.32;4.00;;;;;;;22.07;68.49;101440.97;4996229;28;104112;-48
2022/07/02 10:04:13;;;;;;;4.63;4.05;;;;;;;22.08;68.54;101453.66;4992413;28;102402;-45
2022/07/02 10:06:42;;;;;;;4.37;3.97;;;;;;;22.03;68.37;101451.91;4994812;28;102371;-47
2022/07/02 10:09:11;;;;;;;4.15;3.75;;;;;;;22.04;68.14;101453.53;4995570;28;102305;-45
2022/07/02 10:11:40;;;;;;;4.50;4.10;;;;;;;22.05;67.99;101448.78;4996458;28;103943;-46
2022/07/02 10:14:09;;;;;;;4.90;3.80;;;;;;;22.07;68.42;101446.50;4997959;28;102392;-46
2022/07/02 10:16:37;;;;;;;3.95;3.60;;;;;;;22.07;68.19;101440.97;4997551;28;101973;-46
2022/07/02 10:19:05;;;;;;;4.37;3.90;;;;;;;22.03;68.29;101439.97;4998852;28;102162;-48
2022/07/02 10:21:34;;;;;;;4.38;3.97;;;;;;;22.01;68.47;101432.00;4995556;28;103975;-47
2022/07/02 10:24:01;;;;;;;4.60;4.05;;;;;;;22.01;68.22;101436.72;4996412;28;102172;-45
2022/07/02 10:26:30;;;;;;;4.43;4.03;;;;;;;21.98;68.61;101431.84;4995730;28;102063;-46
2022/07/02 10:29:00;;;;;;;6.40;4.03;;;;;;;21.97;68.33;101433.00;4996520;28;102642;-46
2022/07/02 10:31:31;;;;;;;4.55;4.15;;;;;;;21.99;68.01;101444.56;4995194;28;104091;-46
2022/07/02 10:34:09;;;;;;;7.35;4.30;;;;;;;22.01;68.45;101440.31;4996360;28;102361;-48
2022/07/02 10:36:36;;;;;;;4.70;4.30;;;;;;;22.02;68.14;101446.66;4994129;28;102549;-46
2022/07/02 10:39:03;;;;;;;4.45;4.03;;;;;;;22.01;68.24;101453.38;4995194;28;102404;-46
2022/07/02 10:41:32;;;;;;;4.90;4.50;;;;;;;22.01;68.50;101442.28;4994120;28;103947;-46
2022/07/02 10:43:59;;;;;;;4.45;4.05;;;;;;;21.99;68.56;101433.47;4994852;28;102491;-48
2022/07/02 10:46:28;;;;;;;4.30;3.90;;;;;;;21.96;68.42;101440.50;4995721;28;102246;-46
2022/07/02 10:48:57;;;;;;;4.90;4.50;;;;;;;21.95;68.84;101438.06;4996982;28;102645;-47
2022/07/02 10:51:26;;;;;;;4.90;4.50;;;;;;;21.97;68.48;101441.31;4995616;28;104145;-45
2022/07/02 10:53:56;;;;;;;5.80;4.20;;;;;;;22.01;68.34;101447.81;4995446;28;103820;-46
2022/07/02 10:56:23;;;;;;;4.68;4.10;;;;;;;21.97;68.31;101444.09;4996266;28;102344;-46
2022/07/02 10:58:51;;;;;;;4.50;4.10;;;;;;;21.95;68.33;101444.41;4997410;28;102188;-46
2022/07/02 11:01:23;;;;;;;5.13;4.63;;;;;;;21.96;68.63;101436.91;4993072;28;103999;-46
2022/07/02 11:03:54;;;;;;;4.57;4.13;;;;;;;21.91;68.60;101434.31;4997187;28;102263;-48
2022/07/02 11:06:23;;;;;;;4.80;4.40;;;;;;;21.90;68.65;101429.94;4996473;28;102294;-46
2022/07/02 11:08:55;;;;;;;4.50;4.10;;;;;;;21.90;69.00;101418.84;4997935;28;102211;-46
2022/07/02 11:11:46;;;;;;;5.13;4.55;;;;;;;21.92;68.34;101433.97;4995754;28;105040;-53
2022/07/02 11:14:18;;;;;;;6.05;4.40;;;;;;;21.96;68.53;101442.44;4990450;28;102453;-47
2022/07/02 11:16:46;;;;;;;4.68;4.18;;;;;;;21.95;68.53;101443.59;4995172;28;101952;-47
2022/07/02 11:19:16;;;;;;;4.80;4.30;;;;;;;21.94;68.84;101430.88;4996327;28;102199;-46
2022/07/02 11:21:44;;;;;;;4.30;3.65;;;;;;;21.91;68.47;101423.22;4994330;28;103939;-47
2022/07/02 11:24:10;;;;;;;5.97;4.88;;;;;;;21.90;68.65;101424.38;4993334;28;102126;-48
2022/07/02 11:26:41;;;;;;;4.50;4.10;;;;;;;21.95;68.32;101426.97;4992602;28;102048;-46
2022/07/02 11:29:08;;;;;;;5.20;4.55;;;;;;;21.98;68.38;101435.44;4997821;28;102414;-46